Albany, Ohio
Current Conditions -  °F | °C
As of 7:15 PM on Tuesday 25 Nov 2014 (Local Time) from KUNI Reporting Station
Clear Clear  
Wind Chill: 34°   Ceiling: Unl
Heat Index: 38°   Visibility: 10mi
Dew Point: 28°   Wind: 5mph
Humidity: 69%   Direction: 360°N
Pressure: 30.14"   Gusts: NA
Location:  39.23°N, 82.2°W
Report Text: KUNI 260015Z AUTO 36004KT 10SM CLR 03/M02 A3014 RMK AO2 T00311021
Loading
Personal Weather Stations






























Interactive Weather Map New forecast layout! Learn more

10-Day Weather Forecast

Advertisements
Track Severe Weather on mobile